Terminal Aerodrome Forecast
Issued by NWS Medford, OR

Home | Current Version | Previous Version | Text Only | Print | Product List | Glossary On
Versions: 1 2 3 4 5 6 7 8 9 10 11 12 13 14 15 16 17 18 19 20 21 22 23
192
FTUS46 KMFR 070539
TAFMFR
TAF
KMFR 070539Z 0706/0806 31006KT P6SM BKN040
     FM070900 00000KT 4SM BR OVC009
     FM071000 00000KT 1/2SM FZFG VV002
     FM071900 00000KT 4SM BR BKN005 BKN150
     FM072100 VRB02KT P6SM FEW002 BKN150
     FM080400 15006KT P6SM VCSH BKN040 OVC100=

USA.gov is the U.S. government's official web portal to all federal, state and local government web resources and services.